sensor_id;sensor_type;location;lat;lon;timestamp;pressure;altitude;pressure_sealevel;temperature;humidity
55932;BME280;41837;55.700;37.984;2023-04-15T00:02:17;101230.28;;;-2.33;42.95
55932;BME280;41837;55.700;37.984;2023-04-15T00:04:47;101229.06;;;-2.45;43.32
55932;BME280;41837;55.700;37.984;2023-04-15T00:07:13;101226.50;;;-2.45;42.70
55932;BME280;41837;55.700;37.984;2023-04-15T00:09:40;101239.28;;;-2.45;43.35
55932;BME280;41837;55.700;37.984;2023-04-15T00:12:07;101238.28;;;-2.50;43.83
55932;BME280;41837;55.700;37.984;2023-04-15T00:14:34;101246.84;;;-2.49;44.09
55932;BME280;41837;55.700;37.984;2023-04-15T00:17:02;101244.06;;;-2.55;43.54
55932;BME280;41837;55.700;37.984;2023-04-15T00:19:28;101245.44;;;-2.65;44.27
55932;BME280;41837;55.700;37.984;2023-04-15T00:21:54;101254.50;;;-2.75;44.72
55932;BME280;41837;55.700;37.984;2023-04-15T00:24:21;101253.78;;;-2.71;44.03
55932;BME280;41837;55.700;37.984;2023-04-15T00:26:48;101254.59;;;-2.72;44.39
55932;BME280;41837;55.700;37.984;2023-04-15T00:29:14;101256.03;;;-2.78;45.10
55932;BME280;41837;55.700;37.984;2023-04-15T00:31:40;101255.84;;;-2.85;44.50
55932;BME280;41837;55.700;37.984;2023-04-15T00:34:07;101266.16;;;-2.83;45.77
55932;BME280;41837;55.700;37.984;2023-04-15T00:36:33;101263.25;;;-2.92;45.54
55932;BME280;41837;55.700;37.984;2023-04-15T00:39:00;101277.97;;;-2.87;44.95
55932;BME280;41837;55.700;37.984;2023-04-15T00:41:28;101265.00;;;-2.91;45.20
55932;BME280;41837;55.700;37.984;2023-04-15T00:43:54;101264.81;;;-2.96;45.42
55932;BME280;41837;55.700;37.984;2023-04-15T00:46:21;101273.22;;;-3.00;45.83
55932;BME280;41837;55.700;37.984;2023-04-15T00:48:47;101277.22;;;-3.07;45.76
55932;BME280;41837;55.700;37.984;2023-04-15T00:51:14;101278.81;;;-3.10;46.39
55932;BME280;41837;55.700;37.984;2023-04-15T00:53:40;101287.47;;;-3.07;46.06
55932;BME280;41837;55.700;37.984;2023-04-15T00:56:07;101279.66;;;-3.10;44.71
55932;BME280;41837;55.700;37.984;2023-04-15T00:58:33;101287.28;;;-3.11;45.53
55932;BME280;41837;55.700;37.984;2023-04-15T01:00:59;101293.19;;;-3.12;45.30
55932;BME280;41837;55.700;37.984;2023-04-15T01:03:26;101303.22;;;-3.19;46.15
55932;BME280;41837;55.700;37.984;2023-04-15T01:05:52;101299.03;;;-3.16;44.42
55932;BME280;41837;55.700;37.984;2023-04-15T01:08:26;101298.91;;;-3.20;45.80
55932;BME280;41837;55.700;37.984;2023-04-15T01:11:00;101309.91;;;-3.22;45.35
55932;BME280;41837;55.700;37.984;2023-04-15T01:13:29;101311.50;;;-3.24;45.37
55932;BME280;41837;55.700;37.984;2023-04-15T01:15:56;101304.28;;;-3.36;46.32
55932;BME280;41837;55.700;37.984;2023-04-15T01:18:22;101316.47;;;-3.29;46.05
55932;BME280;41837;55.700;37.984;2023-04-15T01:20:48;101298.97;;;-3.41;45.50
55932;BME280;41837;55.700;37.984;2023-04-15T01:23:14;101314.66;;;-3.31;45.52
55932;BME280;41837;55.700;37.984;2023-04-15T01:25:42;101322.97;;;-3.37;46.59
55932;BME280;41837;55.700;37.984;2023-04-15T01:28:09;101320.34;;;-3.39;45.33
55932;BME280;41837;55.700;37.984;2023-04-15T01:30:36;101316.94;;;-3.39;46.10
55932;BME280;41837;55.700;37.984;2023-04-15T01:33:02;101322.13;;;-3.38;45.82
55932;BME280;41837;55.700;37.984;2023-04-15T01:35:47;101310.41;;;-3.53;45.57
55932;BME280;41837;55.700;37.984;2023-04-15T01:38:13;101326.00;;;-3.47;45.89
55932;BME280;41837;55.700;37.984;2023-04-15T01:40:39;101331.84;;;-3.50;45.88
55932;BME280;41837;55.700;37.984;2023-04-15T01:43:07;101329.97;;;-3.54;46.70
55932;BME280;41837;55.700;37.984;2023-04-15T01:45:34;101339.78;;;-3.65;47.32
55932;BME280;41837;55.700;37.984;2023-04-15T01:48:04;101333.63;;;-3.70;48.26
55932;BME280;41837;55.700;37.984;2023-04-15T01:50:32;101326.81;;;-3.69;47.32
55932;BME280;41837;55.700;37.984;2023-04-15T01:52:59;101350.09;;;-3.62;48.58
55932;BME280;41837;55.700;37.984;2023-04-15T01:55:26;101340.38;;;-3.70;48.06
55932;BME280;41837;55.700;37.984;2023-04-15T01:57:53;101341.88;;;-3.76;48.15
55932;BME280;41837;55.700;37.984;2023-04-15T02:00:21;101344.94;;;-3.63;48.17
55932;BME280;41837;55.700;37.984;2023-04-15T02:02:49;101354.06;;;-3.70;48.61
55932;BME280;41837;55.700;37.984;2023-04-15T02:05:16;101337.84;;;-3.70;48.67
55932;BME280;41837;55.700;37.984;2023-04-15T02:07:48;101353.31;;;-3.67;49.18
55932;BME280;41837;55.700;37.984;2023-04-15T02:10:16;101351.50;;;-3.70;48.72
55932;BME280;41837;55.700;37.984;2023-04-15T02:12:44;101355.13;;;-3.65;48.08
55932;BME280;41837;55.700;37.984;2023-04-15T02:15:11;101359.97;;;-3.71;48.92
55932;BME280;41837;55.700;37.984;2023-04-15T02:17:38;101367.72;;;-3.69;48.98
55932;BME280;41837;55.700;37.984;2023-04-15T02:20:09;101374.50;;;-3.70;49.28
55932;BME280;41837;55.700;37.984;2023-04-15T02:22:36;101369.44;;;-3.68;48.17
55932;BME280;41837;55.700;37.984;2023-04-15T02:25:04;101371.19;;;-3.67;48.75
55932;BME280;41837;55.700;37.984;2023-04-15T02:27:32;101372.69;;;-3.72;48.51
55932;BME280;41837;55.700;37.984;2023-04-15T02:29:59;101378.78;;;-3.69;48.56
55932;BME280;41837;55.700;37.984;2023-04-15T02:32:27;101380.34;;;-3.72;48.97
55932;BME280;41837;55.700;37.984;2023-04-15T02:34:55;101385.34;;;-3.76;48.62
55932;BME280;41837;55.700;37.984;2023-04-15T02:37:23;101379.16;;;-3.81;49.37
55932;BME280;41837;55.700;37.984;2023-04-15T02:39:53;101391.50;;;-3.70;49.07
55932;BME280;41837;55.700;37.984;2023-04-15T02:42:20;101396.56;;;-3.72;49.71
55932;BME280;41837;55.700;37.984;2023-04-15T02:44:48;101404.34;;;-3.69;49.38
55932;BME280;41837;55.700;37.984;2023-04-15T02:47:15;101410.41;;;-3.67;48.71
55932;BME280;41837;55.700;37.984;2023-04-15T02:49:43;101405.13;;;-3.71;48.91
55932;BME280;41837;55.700;37.984;2023-04-15T02:52:10;101416.47;;;-3.65;48.82
55932;BME280;41837;55.700;37.984;2023-04-15T02:54:37;101419.38;;;-3.56;48.31
55932;BME280;41837;55.700;37.984;2023-04-15T02:57:04;101415.13;;;-3.55;48.89
55932;BME280;41837;55.700;37.984;2023-04-15T02:59:32;101425.50;;;-3.52;47.82
55932;BME280;41837;55.700;37.984;2023-04-15T03:02:00;101421.50;;;-3.45;47.64
55932;BME280;41837;55.700;37.984;2023-04-15T03:04:28;101420.94;;;-3.38;47.87
55932;BME280;41837;55.700;37.984;2023-04-15T03:06:57;101414.97;;;-3.39;48.04
55932;BME280;41837;55.700;37.984;2023-04-15T03:09:25;101435.84;;;-3.28;46.73
55932;BME280;41837;55.700;37.984;2023-04-15T03:11:53;101430.72;;;-3.28;46.76
55932;BME280;41837;55.700;37.984;2023-04-15T03:14:21;101428.16;;;-3.28;46.76
55932;BME280;41837;55.700;37.984;2023-04-15T03:16:49;101432.38;;;-3.09;47.16
55932;BME280;41837;55.700;37.984;2023-04-15T03:19:18;101424.16;;;-3.00;46.05
55932;BME280;41837;55.700;37.984;2023-04-15T03:21:45;101439.06;;;-2.90;45.70
55932;BME280;41837;55.700;37.984;2023-04-15T03:24:14;101432.63;;;-2.80;45.07
55932;BME280;41837;55.700;37.984;2023-04-15T03:26:41;101437.28;;;-2.70;45.24
55932;BME280;41837;55.700;37.984;2023-04-15T03:29:12;101441.69;;;-2.66;45.02
55932;BME280;41837;55.700;37.984;2023-04-15T03:31:40;101445.28;;;-2.60;44.95
55932;BME280;41837;55.700;37.984;2023-04-15T03:34:08;101442.16;;;-2.53;45.51
55932;BME280;41837;55.700;37.984;2023-04-15T03:36:36;101451.75;;;-2.48;44.60
55932;BME280;41837;55.700;37.984;2023-04-15T03:39:03;101450.75;;;-2.51;44.18
55932;BME280;41837;55.700;37.984;2023-04-15T03:41:31;101456.50;;;-2.34;44.24
55932;BME280;41837;55.700;37.984;2023-04-15T03:43:59;101452.47;;;-2.28;44.02
55932;BME280;41837;55.700;37.984;2023-04-15T03:46:26;101463.88;;;-2.19;43.43
55932;BME280;41837;55.700;37.984;2023-04-15T03:48:54;101453.81;;;-2.15;43.79
55932;BME280;41837;55.700;37.984;2023-04-15T03:51:21;101465.66;;;-1.94;43.61
55932;BME280;41837;55.700;37.984;2023-04-15T03:53:48;101461.78;;;-1.83;43.04
55932;BME280;41837;55.700;37.984;2023-04-15T03:56:15;101465.69;;;-1.93;43.30
55932;BME280;41837;55.700;37.984;2023-04-15T03:58:43;101466.59;;;-1.66;42.28
55932;BME280;41837;55.700;37.984;2023-04-15T04:01:10;101474.00;;;-1.50;42.34
55932;BME280;41837;55.700;37.984;2023-04-15T04:03:37;101483.25;;;-1.29;42.54
55932;BME280;41837;55.700;37.984;2023-04-15T04:06:05;101471.94;;;-1.35;41.75
55932;BME280;41837;55.700;37.984;2023-04-15T04:08:32;101475.72;;;-0.98;41.17
55932;BME280;41837;55.700;37.984;2023-04-15T04:10:59;101474.66;;;-1.04;39.74
55932;BME280;41837;55.700;37.984;2023-04-15T04:13:27;101478.88;;;-0.79;39.14
55932;BME280;41837;55.700;37.984;2023-04-15T04:15:55;101479.69;;;-0.51;39.93
55932;BME280;41837;55.700;37.984;2023-04-15T04:18:22;101474.16;;;-0.36;39.62
55932;BME280;41837;55.700;37.984;2023-04-15T04:20:52;101481.66;;;-0.43;39.03
55932;BME280;41837;55.700;37.984;2023-04-15T04:23:19;101485.69;;;-0.24;38.35
55932;BME280;41837;55.700;37.984;2023-04-15T04:25:47;101477.22;;;-0.20;38.49
55932;BME280;41837;55.700;37.984;2023-04-15T04:28:14;101484.50;;;-0.05;38.35
55932;BME280;41837;55.700;37.984;2023-04-15T04:30:42;101465.84;;;-0.28;37.83
55932;BME280;41837;55.700;37.984;2023-04-15T04:33:09;101485.03;;;-0.74;38.62
55932;BME280;41837;55.700;37.984;2023-04-15T04:35:36;101483.00;;;-0.27;37.91
55932;BME280;41837;55.700;37.984;2023-04-15T04:38:04;101477.56;;;-0.07;37.43
55932;BME280;41837;55.700;37.984;2023-04-15T04:40:31;101479.56;;;0.03;37.54
55932;BME280;41837;55.700;37.984;2023-04-15T04:42:59;101486.31;;;-0.01;36.56
55932;BME280;41837;55.700;37.984;2023-04-15T04:45:26;101481.34;;;0.06;37.07
55932;BME280;41837;55.700;37.984;2023-04-15T04:47:54;101489.06;;;0.06;37.28
55932;BME280;41837;55.700;37.984;2023-04-15T04:50:21;101486.88;;;-0.11;37.01
55932;BME280;41837;55.700;37.984;2023-04-15T04:52:48;101488.50;;;-0.14;36.34
55932;BME280;41837;55.700;37.984;2023-04-15T04:55:17;101488.41;;;0.13;36.68
55932;BME280;41837;55.700;37.984;2023-04-15T04:57:44;101485.34;;;0.26;36.52
55932;BME280;41837;55.700;37.984;2023-04-15T05:00:11;101494.41;;;0.13;36.40
55932;BME280;41837;55.700;37.984;2023-04-15T05:02:38;101499.16;;;0.30;36.75
55932;BME280;41837;55.700;37.984;2023-04-15T05:05:07;101482.94;;;0.34;36.12
55932;BME280;41837;55.700;37.984;2023-04-15T05:07:34;101491.94;;;0.48;36.42
55932;BME280;41837;55.700;37.984;2023-04-15T05:10:02;101472.97;;;0.78;36.20
55932;BME280;41837;55.700;37.984;2023-04-15T05:12:29;101493.50;;;0.77;36.00
55932;BME280;41837;55.700;37.984;2023-04-15T05:14:57;101493.22;;;0.32;35.73
55932;BME280;41837;55.700;37.984;2023-04-15T05:17:25;101488.53;;;0.51;35.88
55932;BME280;41837;55.700;37.984;2023-04-15T05:19:52;101487.03;;;0.92;35.94
55932;BME280;41837;55.700;37.984;2023-04-15T05:22:20;101488.41;;;0.78;35.69
55932;BME280;41837;55.700;37.984;2023-04-15T05:24:47;101487.88;;;0.25;35.97
55932;BME280;41837;55.700;37.984;2023-04-15T05:27:14;101487.09;;;0.29;35.97
55932;BME280;41837;55.700;37.984;2023-04-15T05:29:42;101494.59;;;-0.11;35.68
55932;BME280;41837;55.700;37.984;2023-04-15T05:32:10;101491.94;;;0.48;36.35
55932;BME280;41837;55.700;37.984;2023-04-15T05:34:37;101498.66;;;0.43;35.95
55932;BME280;41837;55.700;37.984;2023-04-15T05:37:05;101499.03;;;-0.05;35.57
55932;BME280;41837;55.700;37.984;2023-04-15T05:39:32;101506.41;;;0.45;36.23
55932;BME280;41837;55.700;37.984;2023-04-15T05:42:00;101512.38;;;0.44;35.64
55932;BME280;41837;55.700;37.984;2023-04-15T05:44:27;101502.91;;;0.41;35.56
55932;BME280;41837;55.700;37.984;2023-04-15T05:46:54;101497.41;;;0.29;35.60
55932;BME280;41837;55.700;37.984;2023-04-15T05:49:22;101511.09;;;0.28;35.76
55932;BME280;41837;55.700;37.984;2023-04-15T05:51:49;101498.69;;;0.13;36.07
55932;BME280;41837;55.700;37.984;2023-04-15T05:54:17;101517.75;;;0.51;36.11
55932;BME280;41837;55.700;37.984;2023-04-15T05:56:44;101520.19;;;0.47;35.96
55932;BME280;41837;55.700;37.984;2023-04-15T05:59:11;101520.69;;;0.65;35.57
55932;BME280;41837;55.700;37.984;2023-04-15T06:01:39;101510.59;;;0.74;35.15
55932;BME280;41837;55.700;37.984;2023-04-15T06:04:06;101498.03;;;0.85;35.87
55932;BME280;41837;55.700;37.984;2023-04-15T06:06:33;101512.16;;;1.03;35.36
55932;BME280;41837;55.700;37.984;2023-04-15T06:09:01;101507.78;;;0.99;34.90
55932;BME280;41837;55.700;37.984;2023-04-15T06:11:29;101515.44;;;0.96;35.16
55932;BME280;41837;55.700;37.984;2023-04-15T06:13:56;101523.75;;;0.85;34.29
55932;BME280;41837;55.700;37.984;2023-04-15T06:16:24;101519.91;;;1.03;35.13
55932;BME280;41837;55.700;37.984;2023-04-15T06:18:52;101517.38;;;1.04;34.92
55932;BME280;41837;55.700;37.984;2023-04-15T06:21:19;101520.13;;;0.77;35.52
55932;BME280;41837;55.700;37.984;2023-04-15T06:23:47;101528.91;;;0.85;35.85
55932;BME280;41837;55.700;37.984;2023-04-15T06:26:14;101517.16;;;0.97;35.28
55932;BME280;41837;55.700;37.984;2023-04-15T06:28:42;101509.81;;;0.77;35.32
55932;BME280;41837;55.700;37.984;2023-04-15T06:31:09;101516.47;;;1.02;34.64
55932;BME280;41837;55.700;37.984;2023-04-15T06:33:36;101518.59;;;1.20;33.75
55932;BME280;41837;55.700;37.984;2023-04-15T06:36:03;101523.53;;;1.11;34.57
55932;BME280;41837;55.700;37.984;2023-04-15T06:38:31;101514.72;;;1.38;33.75
55932;BME280;41837;55.700;37.984;2023-04-15T06:40:58;101531.38;;;1.54;33.85
55932;BME280;41837;55.700;37.984;2023-04-15T06:43:26;101509.75;;;1.47;33.00
55932;BME280;41837;55.700;37.984;2023-04-15T06:45:53;101519.41;;;1.56;33.58
55932;BME280;41837;55.700;37.984;2023-04-15T06:48:21;101524.38;;;1.46;33.80
55932;BME280;41837;55.700;37.984;2023-04-15T06:50:48;101523.13;;;1.68;32.86
55932;BME280;41837;55.700;37.984;2023-04-15T06:53:16;101519.81;;;1.74;32.78
55932;BME280;41837;55.700;37.984;2023-04-15T06:55:43;101531.28;;;1.87;33.93
55932;BME280;41837;55.700;37.984;2023-04-15T06:58:10;101520.09;;;1.88;33.75
55932;BME280;41837;55.700;37.984;2023-04-15T07:00:37;101526.66;;;2.15;33.31
55932;BME280;41837;55.700;37.984;2023-04-15T07:03:05;101525.47;;;1.97;32.54
55932;BME280;41837;55.700;37.984;2023-04-15T07:05:33;101526.53;;;2.09;33.11
55932;BME280;41837;55.700;37.984;2023-04-15T07:08:00;101527.88;;;2.32;32.77
55932;BME280;41837;55.700;37.984;2023-04-15T07:10:27;101517.81;;;2.02;32.45
55932;BME280;41837;55.700;37.984;2023-04-15T07:12:56;101526.22;;;2.36;32.22
55932;BME280;41837;55.700;37.984;2023-04-15T07:15:23;101522.06;;;2.44;32.16
55932;BME280;41837;55.700;37.984;2023-04-15T07:17:51;101508.22;;;2.39;32.34
55932;BME280;41837;55.700;37.984;2023-04-15T07:20:18;101520.53;;;2.54;31.91
55932;BME280;41837;55.700;37.984;2023-04-15T07:22:45;101525.78;;;2.58;31.19
55932;BME280;41837;55.700;37.984;2023-04-15T07:25:13;101506.47;;;2.87;31.23
55932;BME280;41837;55.700;37.984;2023-04-15T07:27:40;101529.59;;;3.32;30.74
55932;BME280;41837;55.700;37.984;2023-04-15T07:30:08;101527.41;;;3.59;30.35
55932;BME280;41837;55.700;37.984;2023-04-15T07:32:37;101522.09;;;3.49;30.40
55932;BME280;41837;55.700;37.984;2023-04-15T07:35:04;101536.53;;;2.83;30.21
55932;BME280;41837;55.700;37.984;2023-04-15T07:37:31;101526.13;;;3.30;29.67
55932;BME280;41837;55.700;37.984;2023-04-15T07:39:59;101515.63;;;3.81;29.26
55932;BME280;41837;55.700;37.984;2023-04-15T07:42:27;101523.75;;;4.08;28.62
55932;BME280;41837;55.700;37.984;2023-04-15T07:44:55;101529.06;;;4.22;28.99
55932;BME280;41837;55.700;37.984;2023-04-15T07:47:22;101531.22;;;3.87;28.90
55932;BME280;41837;55.700;37.984;2023-04-15T07:49:50;101518.38;;;3.93;28.71
55932;BME280;41837;55.700;37.984;2023-04-15T07:52:18;101524.88;;;4.32;28.41
55932;BME280;41837;55.700;37.984;2023-04-15T07:54:45;101510.47;;;4.56;27.85
55932;BME280;41837;55.700;37.984;2023-04-15T07:57:12;101506.50;;;4.95;28.09
55932;BME280;41837;55.700;37.984;2023-04-15T07:59:40;101509.00;;;4.87;27.71
55932;BME280;41837;55.700;37.984;2023-04-15T08:02:08;101503.28;;;4.28;28.04
55932;BME280;41837;55.700;37.984;2023-04-15T08:04:36;101505.72;;;4.16;28.63
55932;BME280;41837;55.700;37.984;2023-04-15T08:07:04;101514.75;;;4.54;27.64
55932;BME280;41837;55.700;37.984;2023-04-15T08:09:31;101510.34;;;4.43;27.90
55932;BME280;41837;55.700;37.984;2023-04-15T08:11:59;101516.72;;;4.78;27.92
55932;BME280;41837;55.700;37.984;2023-04-15T08:14:26;101522.75;;;4.78;27.05
55932;BME280;41837;55.700;37.984;2023-04-15T08:16:53;101512.53;;;4.95;26.71
55932;BME280;41837;55.700;37.984;2023-04-15T08:19:20;101503.09;;;5.02;27.53
55932;BME280;41837;55.700;37.984;2023-04-15T08:21:48;101506.59;;;5.09;27.11
55932;BME280;41837;55.700;37.984;2023-04-15T08:24:15;101501.16;;;4.76;27.19
55932;BME280;41837;55.700;37.984;2023-04-15T08:26:43;101517.53;;;4.72;27.81
55932;BME280;41837;55.700;37.984;2023-04-15T08:29:10;101507.13;;;4.69;28.29
55932;BME280;41837;55.700;37.984;2023-04-15T08:31:37;101504.44;;;4.57;26.97
55932;BME280;41837;55.700;37.984;2023-04-15T08:34:05;101509.59;;;4.55;27.79
55932;BME280;41837;55.700;37.984;2023-04-15T08:36:32;101491.63;;;4.74;28.11
55932;BME280;41837;55.700;37.984;2023-04-15T08:38:59;101505.50;;;4.79;27.99
55932;BME280;41837;55.700;37.984;2023-04-15T08:41:40;101491.72;;;4.83;27.85
55932;BME280;41837;55.700;37.984;2023-04-15T08:44:13;101489.34;;;5.12;26.99
55932;BME280;41837;55.700;37.984;2023-04-15T08:46:41;101493.59;;;5.05;27.30
55932;BME280;41837;55.700;37.984;2023-04-15T08:49:10;101500.44;;;4.93;26.66
55932;BME280;41837;55.700;37.984;2023-04-15T08:51:40;101499.44;;;4.80;27.48
55932;BME280;41837;55.700;37.984;2023-04-15T08:54:08;101493.88;;;5.46;26.26
55932;BME280;41837;55.700;37.984;2023-04-15T08:56:37;101477.34;;;5.25;26.44
55932;BME280;41837;55.700;37.984;2023-04-15T08:59:04;101479.88;;;5.17;26.51
55932;BME280;41837;55.700;37.984;2023-04-15T09:01:34;101484.31;;;5.35;25.94
55932;BME280;41837;55.700;37.984;2023-04-15T09:04:04;101464.78;;;4.65;26.16
55932;BME280;41837;55.700;37.984;2023-04-15T09:06:33;101480.72;;;5.15;26.13
55932;BME280;41837;55.700;37.984;2023-04-15T09:09:01;101487.06;;;5.61;26.52
55932;BME280;41837;55.700;37.984;2023-04-15T09:11:29;101475.63;;;5.29;24.07
55932;BME280;41837;55.700;37.984;2023-04-15T09:13:57;101480.69;;;5.09;24.65
55932;BME280;41837;55.700;37.984;2023-04-15T09:16:24;101476.78;;;5.83;25.43
55932;BME280;41837;55.700;37.984;2023-04-15T09:18:52;101472.19;;;5.33;25.87
55932;BME280;41837;55.700;37.984;2023-04-15T09:21:21;101473.78;;;5.11;25.30
55932;BME280;41837;55.700;37.984;2023-04-15T09:23:56;101485.31;;;5.56;25.41
55932;BME280;41837;55.700;37.984;2023-04-15T09:26:34;101482.78;;;5.70;26.17
55932;BME280;41837;55.700;37.984;2023-04-15T09:29:06;101488.75;;;5.55;25.51
55932;BME280;41837;55.700;37.984;2023-04-15T09:31:35;101472.16;;;5.27;25.08
55932;BME280;41837;55.700;37.984;2023-04-15T09:34:03;101474.16;;;5.77;25.79
55932;BME280;41837;55.700;37.984;2023-04-15T09:36:52;101455.03;;;5.58;25.37
55932;BME280;41837;55.700;37.984;2023-04-15T09:39:19;101469.03;;;5.88;24.52
55932;BME280;41837;55.700;37.984;2023-04-15T09:42:05;101481.84;;;5.54;24.01
55932;BME280;41837;55.700;37.984;2023-04-15T09:44:33;101475.75;;;5.46;24.36
55932;BME280;41837;55.700;37.984;2023-04-15T09:47:00;101469.13;;;6.05;24.72
55932;BME280;41837;55.700;37.984;2023-04-15T09:49:28;101456.91;;;5.81;25.03
55932;BME280;41837;55.700;37.984;2023-04-15T09:52:01;101455.31;;;6.20;25.77
55932;BME280;41837;55.700;37.984;2023-04-15T09:54:36;101468.25;;;6.04;25.70
55932;BME280;41837;55.700;37.984;2023-04-15T09:57:08;101457.78;;;5.92;25.85
55932;BME280;41837;55.700;37.984;2023-04-15T09:59:39;101452.56;;;5.90;26.54
55932;BME280;41837;55.700;37.984;2023-04-15T10:02:06;101462.22;;;6.19;25.33
55932;BME280;41837;55.700;37.984;2023-04-15T10:04:35;101470.75;;;5.89;26.22
55932;BME280;41837;55.700;37.984;2023-04-15T10:07:07;101476.81;;;5.86;26.51
55932;BME280;41837;55.700;37.984;2023-04-15T10:09:36;101462.97;;;5.86;25.72
55932;BME280;41837;55.700;37.984;2023-04-15T10:12:04;101466.38;;;5.75;25.85
55932;BME280;41837;55.700;37.984;2023-04-15T10:14:34;101463.13;;;6.32;25.39
55932;BME280;41837;55.700;37.984;2023-04-15T10:17:02;101458.72;;;6.03;25.22
55932;BME280;41837;55.700;37.984;2023-04-15T10:19:32;101463.16;;;6.49;25.67
55932;BME280;41837;55.700;37.984;2023-04-15T10:22:00;101457.94;;;6.30;25.06
55932;BME280;41837;55.700;37.984;2023-04-15T10:24:32;101460.53;;;6.40;25.51
55932;BME280;41837;55.700;37.984;2023-04-15T10:26:59;101450.13;;;6.20;25.67
55932;BME280;41837;55.700;37.984;2023-04-15T10:29:27;101450.16;;;6.33;24.88
55932;BME280;41837;55.700;37.984;2023-04-15T10:31:55;101447.56;;;6.55;25.54
55932;BME280;41837;55.700;37.984;2023-04-15T10:34:23;101447.56;;;6.50;25.53
55932;BME280;41837;55.700;37.984;2023-04-15T10:36:54;101445.78;;;6.28;25.85
55932;BME280;41837;55.700;37.984;2023-04-15T10:42:15;101460.53;;;6.38;25.70
55932;BME280;41837;55.700;37.984;2023-04-15T10:44:55;101449.28;;;6.38;25.15
55932;BME280;41837;55.700;37.984;2023-04-15T10:47:23;101438.06;;;6.59;25.29
55932;BME280;41837;55.700;37.984;2023-04-15T10:49:56;101451.91;;;6.48;24.99
55932;BME280;41837;55.700;37.984;2023-04-15T10:52:26;101461.44;;;6.79;25.44
55932;BME280;41837;55.700;37.984;2023-04-15T10:55:17;101446.69;;;6.54;25.65
55932;BME280;41837;55.700;37.984;2023-04-15T10:57:45;101441.50;;;6.67;24.57
55932;BME280;41837;55.700;37.984;2023-04-15T11:00:14;101451.91;;;6.73;24.92
55932;BME280;41837;55.700;37.984;2023-04-15T11:08:12;101443.06;;;7.66;25.20
55932;BME280;41837;55.700;37.984;2023-04-15T11:10:49;101449.28;;;6.85;24.19
55932;BME280;41837;55.700;37.984;2023-04-15T11:13:19;101448.41;;;7.20;25.07
55932;BME280;41837;55.700;37.984;2023-04-15T11:15:56;101444.97;;;7.01;24.03
55932;BME280;41837;55.700;37.984;2023-04-15T11:18:28;101434.41;;;7.58;24.00
55932;BME280;41837;55.700;37.984;2023-04-15T11:21:06;101439.66;;;7.41;24.49
55932;BME280;41837;55.700;37.984;2023-04-15T11:23:41;101444.00;;;7.47;24.26
55932;BME280;41837;55.700;37.984;2023-04-15T11:26:14;101444.75;;;7.74;24.11
55932;BME280;41837;55.700;37.984;2023-04-15T11:28:43;101436.25;;;7.28;24.11
55932;BME280;41837;55.700;37.984;2023-04-15T11:31:14;101440.56;;;7.28;24.44
55932;BME280;41837;55.700;37.984;2023-04-15T11:33:53;101437.84;;;7.76;23.86
55932;BME280;41837;55.700;37.984;2023-04-15T11:36:25;101432.69;;;7.54;24.06
55932;BME280;41837;55.700;37.984;2023-04-15T11:38:54;101425.50;;;8.06;24.52
55932;BME280;41837;55.700;37.984;2023-04-15T11:41:22;101421.38;;;7.63;23.44
55932;BME280;41837;55.700;37.984;2023-04-15T11:43:50;101421.22;;;7.98;24.62
55932;BME280;41837;55.700;37.984;2023-04-15T11:46:18;101422.16;;;7.87;23.71
55932;BME280;41837;55.700;37.984;2023-04-15T11:48:45;101398.00;;;7.55;24.11
55932;BME280;41837;55.700;37.984;2023-04-15T11:51:13;101419.44;;;8.11;24.24
55932;BME280;41837;55.700;37.984;2023-04-15T11:53:44;101415.19;;;7.90;24.67
55932;BME280;41837;55.700;37.984;2023-04-15T11:56:21;101417.88;;;7.69;23.96
55932;BME280;41837;55.700;37.984;2023-04-15T11:58:55;101419.63;;;7.65;23.83
55932;BME280;41837;55.700;37.984;2023-04-15T12:01:36;101394.44;;;7.70;24.12
55932;BME280;41837;55.700;37.984;2023-04-15T12:04:15;101408.44;;;7.47;24.75
55932;BME280;41837;55.700;37.984;2023-04-15T12:06:44;101393.59;;;7.74;25.05
55932;BME280;41837;55.700;37.984;2023-04-15T12:09:16;101390.06;;;7.86;24.51
55932;BME280;41837;55.700;37.984;2023-04-15T12:11:50;101396.03;;;8.03;25.24
55932;BME280;41837;55.700;37.984;2023-04-15T12:14:22;101394.44;;;7.69;23.92
55932;BME280;41837;55.700;37.984;2023-04-15T12:16:53;101409.28;;;7.57;23.31
55932;BME280;41837;55.700;37.984;2023-04-15T12:19:27;101395.38;;;7.60;23.85
55932;BME280;41837;55.700;37.984;2023-04-15T12:22:00;101377.03;;;7.86;23.55
55932;BME280;41837;55.700;37.984;2023-04-15T12:24:31;101386.56;;;7.85;24.17
55932;BME280;41837;55.700;37.984;2023-04-15T12:27:01;101383.09;;;7.82;24.10
55932;BME280;41837;55.700;37.984;2023-04-15T12:29:28;101392.56;;;7.98;23.65
55932;BME280;41837;55.700;37.984;2023-04-15T12:31:56;101391.00;;;7.70;23.62
55932;BME280;41837;55.700;37.984;2023-04-15T12:34:32;101389.22;;;7.81;24.02
55932;BME280;41837;55.700;37.984;2023-04-15T12:37:01;101389.22;;;7.75;23.39
55932;BME280;41837;55.700;37.984;2023-04-15T12:39:29;101370.09;;;7.79;24.02
55932;BME280;41837;55.700;37.984;2023-04-15T12:41:58;101395.28;;;7.81;23.99
55932;BME280;41837;55.700;37.984;2023-04-15T12:44:27;101384.03;;;7.67;23.61
55932;BME280;41837;55.700;37.984;2023-04-15T12:46:54;101384.09;;;7.65;23.55
55932;BME280;41837;55.700;37.984;2023-04-15T12:49:21;101381.41;;;7.76;24.14
55932;BME280;41837;55.700;37.984;2023-04-15T12:51:48;101376.22;;;7.70;24.08
55932;BME280;41837;55.700;37.984;2023-04-15T12:54:16;101372.06;;;7.37;23.86
55932;BME280;41837;55.700;37.984;2023-04-15T12:56:43;101379.66;;;7.77;24.46
55932;BME280;41837;55.700;37.984;2023-04-15T12:59:09;101373.59;;;7.79;24.42
55932;BME280;41837;55.700;37.984;2023-04-15T13:01:35;101377.13;;;7.71;24.22